Time;durP1;ratioP1;P1;durP2;ratioP2;P2;SDS_P1;SDS_P2;PMS_P1;PMS_P2;Temp;Humidity;BMP_temperature;BMP_pressure;BME280_temperature;BME280_humidity;BME280_pressure;Samples;Min_cycle;Max_cycle;Signal;HPM_P1;HPM_P2
2022/06/25 00:02:10;;;;;;;11.63;10.88;;;;;;;;;;5064874;28;24427;-47
2022/06/25 00:07:18;;;;;;;11.43;10.52;;;;;;;;;;5062464;28;24550;-46
2022/06/25 00:09:44;;;;;;;11.15;10.25;;;;;;;;;;5070081;28;24517;-47
2022/06/25 00:14:53;;;;;;;10.65;9.85;;;;;;;;;;5061358;28;24469;-46
2022/06/25 00:17:20;;;;;;;10.60;9.80;;;;;;;;;;5070248;28;24418;-46
2022/06/25 00:19:45;;;;;;;11.57;10.77;;;;;;;;;;5081481;28;24826;-46
2022/06/25 00:22:10;;;;;;;11.57;10.77;;;;;;;;;;5064491;28;24477;-46
2022/06/25 00:24:36;;;;;;;11.50;10.70;;;;;;;;;;5064333;28;24426;-46
2022/06/25 00:27:01;;;;;;;12.13;11.23;;;;;;;;;;5059565;28;24572;-46
2022/06/25 00:29:26;;;;;;;11.60;10.70;;;;;;;;;;5064654;28;25307;-45
2022/06/25 00:31:51;;;;;;;11.80;10.90;;;;;;;;;;5063487;28;24426;-46
2022/06/25 00:34:16;;;;;;;10.50;9.80;;;;;;;;;;5062598;28;24969;-46
2022/06/25 00:36:41;;;;;;;11.10;10.25;;;;;;;;;;5063387;28;24410;-45
2022/06/25 00:39:06;;;;;;;11.90;11.07;;;;;;;;;;5068228;28;24466;-47
2022/06/25 00:41:32;;;;;;;11.50;10.60;;;;;;;;;;5062270;28;24980;-46
2022/06/25 00:43:57;;;;;;;11.48;10.68;;;;;;;;;;5059836;28;24472;-47
2022/06/25 00:46:22;;;;;;;11.30;10.50;;;;;;;;;;5062084;28;24564;-46
2022/06/25 00:48:47;;;;;;;12.40;11.60;;;;;;;;;;5061520;28;24427;-46
2022/06/25 00:51:13;;;;;;;11.93;11.13;;;;;;;;;;5066664;28;24460;-46
2022/06/25 00:53:43;;;;;;;11.40;10.70;;;;;;;;;;5070268;28;24789;-47
2022/06/25 00:56:09;;;;;;;11.82;11.00;;;;;;;;;;5063928;28;24418;-47
2022/06/25 00:58:37;;;;;;;11.98;11.07;;;;;;;;;;5071527;28;24435;-47
2022/06/25 01:01:05;;;;;;;12.38;11.48;;;;;;;;;;5060622;28;24469;-47
2022/06/25 01:03:30;;;;;;;11.90;11.10;;;;;;;;;;5075970;28;24836;-47
2022/06/25 01:05:55;;;;;;;11.93;11.03;;;;;;;;;;5063726;28;24983;-47
2022/06/25 01:08:21;;;;;;;11.98;11.15;;;;;;;;;;5084136;28;24438;-47
2022/06/25 01:10:46;;;;;;;11.77;10.87;;;;;;;;;;5062599;28;24426;-47
2022/06/25 01:13:11;;;;;;;11.27;10.27;;;;;;;;;;5066148;28;24458;-47
2022/06/25 01:15:38;;;;;;;11.73;10.93;;;;;;;;;;5058712;28;24464;-47
2022/06/25 01:18:03;;;;;;;11.70;10.88;;;;;;;;;;5074197;28;24428;-47
2022/06/25 01:20:29;;;;;;;11.30;10.50;;;;;;;;;;5056027;28;24426;-48
2022/06/25 01:22:54;;;;;;;11.67;10.93;;;;;;;;;;5067294;28;24438;-46
2022/06/25 01:25:19;;;;;;;12.27;11.37;;;;;;;;;;5060301;28;24433;-47
2022/06/25 01:27:45;;;;;;;11.20;10.40;;;;;;;;;;5064370;28;25064;-47
2022/06/25 01:30:11;;;;;;;11.20;10.40;;;;;;;;;;5062984;28;24853;-46
2022/06/25 01:32:36;;;;;;;12.17;11.07;;;;;;;;;;5065592;28;25035;-47
2022/06/25 01:35:02;;;;;;;11.83;11.00;;;;;;;;;;5061061;28;24472;-47
2022/06/25 01:37:27;;;;;;;11.60;10.70;;;;;;;;;;5073398;28;24425;-47
2022/06/25 01:39:53;;;;;;;11.77;10.87;;;;;;;;;;5061786;28;24414;-47
2022/06/25 01:45:03;;;;;;;12.13;11.23;;;;;;;;;;5059573;28;24442;-46
2022/06/25 01:47:28;;;;;;;12.00;11.00;;;;;;;;;;5062101;28;24430;-46
2022/06/25 01:49:53;;;;;;;12.17;11.17;;;;;;;;;;5071865;28;24544;-47
2022/06/25 01:52:18;;;;;;;12.15;11.25;;;;;;;;;;5075390;28;24455;-47
2022/06/25 01:54:43;;;;;;;12.02;11.02;;;;;;;;;;5056216;28;24492;-47
2022/06/25 01:57:08;;;;;;;11.10;10.20;;;;;;;;;;5064359;28;24413;-46
2022/06/25 01:59:33;;;;;;;11.40;10.40;;;;;;;;;;5074105;28;25017;-47
2022/06/25 02:01:59;;;;;;;13.13;11.95;;;;;;;;;;5067305;28;24418;-47
2022/06/25 02:04:24;;;;;;;11.30;10.40;;;;;;;;;;5063283;28;24407;-47
2022/06/25 02:06:50;;;;;;;12.60;11.65;;;;;;;;;;5066445;28;25494;-47
2022/06/25 02:09:15;;;;;;;12.67;11.63;;;;;;;;;;5061178;28;24423;-47
2022/06/25 02:11:40;;;;;;;12.25;11.30;;;;;;;;;;5075206;28;24421;-46
2022/06/25 02:14:05;;;;;;;13.20;12.10;;;;;;;;;;5068379;28;24525;-46
2022/06/25 02:16:31;;;;;;;13.57;12.43;;;;;;;;;;5064316;28;25177;-46
2022/06/25 02:18:56;;;;;;;13.13;12.23;;;;;;;;;;5055818;28;24425;-45
2022/06/25 02:21:21;;;;;;;12.87;11.77;;;;;;;;;;5064113;28;24861;-47
2022/06/25 02:23:46;;;;;;;12.83;11.80;;;;;;;;;;5066346;28;25026;-48
2022/06/25 02:26:11;;;;;;;12.90;11.90;;;;;;;;;;5060375;28;24506;-47
2022/06/25 02:28:36;;;;;;;14.00;12.70;;;;;;;;;;5058689;28;24427;-46
2022/06/25 02:31:02;;;;;;;13.05;12.10;;;;;;;;;;5067317;28;24531;-46
2022/06/25 02:33:27;;;;;;;13.27;12.38;;;;;;;;;;5061924;28;24438;-47
2022/06/25 02:35:52;;;;;;;14.30;13.30;;;;;;;;;;5060680;28;24411;-47
2022/06/25 02:38:17;;;;;;;13.10;12.20;;;;;;;;;;5066824;28;24419;-46
2022/06/25 02:40:42;;;;;;;13.30;12.30;;;;;;;;;;5083631;28;24523;-47
2022/06/25 02:43:08;;;;;;;14.50;13.43;;;;;;;;;;5059572;28;24990;-47
2022/06/25 02:45:33;;;;;;;14.03;12.83;;;;;;;;;;5069404;28;24567;-47
2022/06/25 02:47:58;;;;;;;14.07;13.07;;;;;;;;;;5055163;28;24438;-47
2022/06/25 02:50:24;;;;;;;12.80;11.80;;;;;;;;;;5060316;28;24418;-47
2022/06/25 02:52:49;;;;;;;12.40;11.60;;;;;;;;;;5063653;28;24427;-47
2022/06/25 02:55:14;;;;;;;13.53;12.33;;;;;;;;;;5060877;28;24853;-47
2022/06/25 03:00:23;;;;;;;12.32;11.52;;;;;;;;;;5062376;28;24415;-47
2022/06/25 03:02:48;;;;;;;13.65;12.60;;;;;;;;;;5063142;28;24422;-46
2022/06/25 03:05:13;;;;;;;13.23;12.23;;;;;;;;;;5061859;28;24454;-47
2022/06/25 03:07:38;;;;;;;13.60;12.60;;;;;;;;;;5065951;28;24953;-47
2022/06/25 03:10:04;;;;;;;13.33;12.33;;;;;;;;;;5062320;28;24494;-47
2022/06/25 03:12:29;;;;;;;13.70;12.70;;;;;;;;;;5065699;28;24423;-46
2022/06/25 03:14:54;;;;;;;13.65;12.55;;;;;;;;;;5067141;28;24460;-46
2022/06/25 03:17:19;;;;;;;12.53;11.53;;;;;;;;;;5063797;28;24480;-46
2022/06/25 03:19:44;;;;;;;12.13;11.13;;;;;;;;;;5065018;28;24785;-46
2022/06/25 03:22:10;;;;;;;14.50;13.10;;;;;;;;;;5065259;28;24411;-47
2022/06/25 03:24:35;;;;;;;12.68;11.80;;;;;;;;;;5066411;28;24413;-47
2022/06/25 03:27:00;;;;;;;13.05;12.05;;;;;;;;;;5064790;28;24462;-46
2022/06/25 03:29:26;;;;;;;12.60;11.60;;;;;;;;;;5065703;28;24456;-46
2022/06/25 03:31:51;;;;;;;12.50;11.70;;;;;;;;;;5066157;28;24423;-46
2022/06/25 03:34:16;;;;;;;13.10;12.00;;;;;;;;;;5063374;28;24429;-47
2022/06/25 03:36:41;;;;;;;11.95;11.05;;;;;;;;;;5066005;28;24472;-47
2022/06/25 03:39:06;;;;;;;13.10;12.20;;;;;;;;;;5063817;28;24419;-46
2022/06/25 03:41:38;;;;;;;12.82;11.82;;;;;;;;;;5063566;28;24860;-46
2022/06/25 03:44:04;;;;;;;12.57;11.67;;;;;;;;;;5065217;28;25050;-46
2022/06/25 03:46:29;;;;;;;12.17;11.17;;;;;;;;;;5066725;28;24387;-46
2022/06/25 03:48:55;;;;;;;12.23;11.33;;;;;;;;;;5062777;28;24522;-47
2022/06/25 03:51:20;;;;;;;14.02;13.02;;;;;;;;;;5066863;28;24464;-47
2022/06/25 03:53:45;;;;;;;12.03;11.13;;;;;;;;;;5064617;28;24430;-47
2022/06/25 03:56:10;;;;;;;12.70;11.70;;;;;;;;;;5063620;28;24516;-47
2022/06/25 03:58:35;;;;;;;12.20;11.30;;;;;;;;;;5063222;28;24469;-47
2022/06/25 04:01:00;;;;;;;11.50;10.70;;;;;;;;;;5064715;28;24475;-47
2022/06/25 04:03:25;;;;;;;12.30;11.50;;;;;;;;;;5065727;28;24422;-47
2022/06/25 04:05:51;;;;;;;11.60;10.70;;;;;;;;;;5064344;28;24427;-47
2022/06/25 04:08:16;;;;;;;12.00;11.10;;;;;;;;;;5063857;28;25003;-46
2022/06/25 04:10:42;;;;;;;10.97;10.27;;;;;;;;;;5065253;28;24480;-46
2022/06/25 04:13:07;;;;;;;10.82;10.02;;;;;;;;;;5064768;28;24473;-46
2022/06/25 04:15:33;;;;;;;11.57;10.70;;;;;;;;;;5065334;28;24473;-46
2022/06/25 04:17:58;;;;;;;11.85;10.95;;;;;;;;;;5066452;28;24471;-45
2022/06/25 04:20:24;;;;;;;11.33;10.53;;;;;;;;;;5066338;28;24984;-45
2022/06/25 04:22:49;;;;;;;10.65;9.85;;;;;;;;;;5064326;28;24455;-45
2022/06/25 04:25:14;;;;;;;10.60;9.80;;;;;;;;;;5066988;28;24418;-46
2022/06/25 04:30:23;;;;;;;11.40;10.50;;;;;;;;;;5069516;28;24754;-47
2022/06/25 04:32:48;;;;;;;10.90;10.13;;;;;;;;;;5070226;28;24945;-46
2022/06/25 04:35:13;;;;;;;11.00;10.10;;;;;;;;;;5066965;28;24422;-47
2022/06/25 04:37:39;;;;;;;10.90;10.10;;;;;;;;;;5066340;28;24453;-47
2022/06/25 04:40:04;;;;;;;10.45;9.75;;;;;;;;;;5067713;28;25268;-47
2022/06/25 04:42:29;;;;;;;10.00;9.20;;;;;;;;;;5069374;28;24501;-47
2022/06/25 04:44:54;;;;;;;9.13;8.32;;;;;;;;;;5070260;28;24738;-47
2022/06/25 04:47:20;;;;;;;9.40;8.80;;;;;;;;;;5080226;28;24467;-47
2022/06/25 04:49:45;;;;;;;9.70;8.90;;;;;;;;;;5064674;28;24423;-47
2022/06/25 04:52:10;;;;;;;7.70;7.10;;;;;;;;;;5073351;28;24425;-46
2022/06/25 04:54:35;;;;;;;7.05;6.50;;;;;;;;;;5087819;28;24402;-47
2022/06/25 04:57:01;;;;;;;7.43;6.93;;;;;;;;;;5068074;28;24448;-47
2022/06/25 04:59:26;;;;;;;7.38;6.70;;;;;;;;;;5075227;28;24422;-47
2022/06/25 05:01:51;;;;;;;7.60;6.00;;;;;;;;;;5061144;28;24514;-47
2022/06/25 05:04:16;;;;;;;5.40;4.90;;;;;;;;;;5066020;28;24781;-47
2022/06/25 05:06:42;;;;;;;5.03;4.63;;;;;;;;;;5069667;28;24778;-47
2022/06/25 05:09:07;;;;;;;5.80;5.30;;;;;;;;;;5080999;28;24963;-47
2022/06/25 05:11:32;;;;;;;6.77;5.63;;;;;;;;;;5061594;28;24482;-45
2022/06/25 05:13:57;;;;;;;5.23;4.67;;;;;;;;;;5061205;28;24801;-45
2022/06/25 05:16:22;;;;;;;5.10;4.53;;;;;;;;;;5064920;28;24418;-46
2022/06/25 05:18:48;;;;;;;4.93;4.53;;;;;;;;;;5061622;28;24415;-46
2022/06/25 05:21:13;;;;;;;5.13;4.72;;;;;;;;;;5066654;28;24499;-47
2022/06/25 05:23:38;;;;;;;5.20;4.80;;;;;;;;;;5065731;28;24517;-46
2022/06/25 05:26:03;;;;;;;4.50;4.10;;;;;;;;;;5062146;28;24426;-46
2022/06/25 05:28:28;;;;;;;4.60;4.10;;;;;;;;;;5056019;28;24517;-46
2022/06/25 05:30:54;;;;;;;4.20;3.80;;;;;;;;;;5073041;28;24421;-45
2022/06/25 05:33:19;;;;;;;5.15;4.50;;;;;;;;;;5064751;28;24486;-45
2022/06/25 05:35:44;;;;;;;5.30;4.80;;;;;;;;;;5064521;28;25240;-46
2022/06/25 05:38:09;;;;;;;4.97;4.57;;;;;;;;;;5074993;28;24445;-47
2022/06/25 05:40:35;;;;;;;4.90;4.50;;;;;;;;;;5078505;28;24573;-47
2022/06/25 05:43:00;;;;;;;4.82;4.32;;;;;;;;;;5083353;28;24515;-46
2022/06/25 05:45:25;;;;;;;4.10;3.80;;;;;;;;;;5067362;28;24449;-47
2022/06/25 05:47:50;;;;;;;4.50;4.10;;;;;;;;;;5071474;28;25114;-46
2022/06/25 05:50:16;;;;;;;4.10;3.80;;;;;;;;;;5060181;28;24430;-47
2022/06/25 05:52:41;;;;;;;4.50;4.10;;;;;;;;;;5060523;28;25041;-46
2022/06/25 05:55:06;;;;;;;4.57;4.00;;;;;;;;;;5061896;28;24445;-46
2022/06/25 05:57:31;;;;;;;4.40;4.00;;;;;;;;;;5066273;28;24450;-47
2022/06/25 05:59:56;;;;;;;4.30;3.90;;;;;;;;;;5058034;28;24426;-47
2022/06/25 06:02:22;;;;;;;4.50;4.20;;;;;;;;;;5068139;28;24584;-47
2022/06/25 06:04:47;;;;;;;4.22;3.92;;;;;;;;;;5058785;28;24496;-47
2022/06/25 06:07:12;;;;;;;4.70;3.90;;;;;;;;;;5063380;28;24421;-46
2022/06/25 06:09:38;;;;;;;3.87;3.57;;;;;;;;;;5063277;28;24483;-47
2022/06/25 06:12:03;;;;;;;3.90;3.60;;;;;;;;;;5064346;28;24511;-47
2022/06/25 06:14:28;;;;;;;3.93;3.53;;;;;;;;;;5064671;28;24474;-46
2022/06/25 06:16:53;;;;;;;4.43;4.03;;;;;;;;;;5076902;28;24458;-46
2022/06/25 06:19:19;;;;;;;5.70;4.37;;;;;;;;;;5066357;28;24422;-46
2022/06/25 06:21:44;;;;;;;4.00;3.70;;;;;;;;;;5061398;28;24423;-47
2022/06/25 06:24:09;;;;;;;5.43;4.40;;;;;;;;;;5059416;28;24549;-46
2022/06/25 06:26:34;;;;;;;4.97;4.40;;;;;;;;;;5058049;28;24484;-46
2022/06/25 06:29:00;;;;;;;3.90;3.50;;;;;;;;;;5060289;28;24527;-46
2022/06/25 06:31:25;;;;;;;4.30;3.60;;;;;;;;;;5065388;28;24469;-46
2022/06/25 06:33:50;;;;;;;4.00;3.70;;;;;;;;;;5068658;28;24431;-47
2022/06/25 06:36:15;;;;;;;3.70;3.25;;;;;;;;;;5068445;28;24521;-47
2022/06/25 06:38:40;;;;;;;3.57;3.37;;;;;;;;;;5061743;28;24824;-47
2022/06/25 06:41:05;;;;;;;4.10;3.80;;;;;;;;;;5064042;28;24422;-48
2022/06/25 06:43:31;;;;;;;4.22;3.83;;;;;;;;;;5055403;28;24832;-48
2022/06/25 06:45:56;;;;;;;4.90;4.20;;;;;;;;;;5080959;28;24450;-48
2022/06/25 06:48:21;;;;;;;3.80;3.60;;;;;;;;;;5070614;28;24485;-48
2022/06/25 06:50:46;;;;;;;4.50;4.10;;;;;;;;;;5069679;28;24475;-47
2022/06/25 06:53:11;;;;;;;4.20;3.80;;;;;;;;;;5073617;28;24988;-49
2022/06/25 06:55:36;;;;;;;4.10;3.72;;;;;;;;;;5073905;28;25255;-46
2022/06/25 06:58:01;;;;;;;3.90;3.60;;;;;;;;;;5081360;28;24426;-46
2022/06/25 07:00:27;;;;;;;3.80;3.60;;;;;;;;;;5077332;28;24518;-46
2022/06/25 07:02:52;;;;;;;4.00;3.70;;;;;;;;;;5075857;28;24416;-45
2022/06/25 07:05:17;;;;;;;3.63;3.40;;;;;;;;;;5066175;28;24493;-46
2022/06/25 07:07:42;;;;;;;4.70;4.30;;;;;;;;;;5065020;28;24968;-46
2022/06/25 07:10:07;;;;;;;3.77;3.47;;;;;;;;;;5066416;28;24438;-46
2022/06/25 07:12:33;;;;;;;6.43;3.90;;;;;;;;;;5065446;28;24430;-46
2022/06/25 07:14:58;;;;;;;3.60;3.30;;;;;;;;;;5063813;28;24453;-46
2022/06/25 07:17:23;;;;;;;4.10;3.33;;;;;;;;;;5078360;28;24423;-46
2022/06/25 07:19:48;;;;;;;3.05;2.85;;;;;;;;;;5064170;28;24994;-47
2022/06/25 07:22:13;;;;;;;3.60;3.30;;;;;;;;;;5068604;28;24422;-47
2022/06/25 07:24:38;;;;;;;4.38;3.97;;;;;;;;;;5064188;28;24460;-47
2022/06/25 07:27:03;;;;;;;4.20;3.90;;;;;;;;;;5058548;28;25064;-45
2022/06/25 07:29:29;;;;;;;3.93;3.63;;;;;;;;;;5067394;28;24425;-47
2022/06/25 07:31:55;;;;;;;3.87;3.57;;;;;;;;;;5064797;28;24695;-46
2022/06/25 07:34:20;;;;;;;4.07;3.78;;;;;;;;;;5065810;28;24538;-46
2022/06/25 07:36:45;;;;;;;3.70;3.40;;;;;;;;;;5068242;28;24414;-46
2022/06/25 07:39:10;;;;;;;4.00;3.53;;;;;;;;;;5071786;28;24437;-46
2022/06/25 07:41:35;;;;;;;3.80;3.50;;;;;;;;;;5072931;28;24418;-46
2022/06/25 07:44:00;;;;;;;3.67;3.47;;;;;;;;;;5063715;28;24539;-46
2022/06/25 07:46:26;;;;;;;4.00;3.70;;;;;;;;;;5064964;28;24991;-45
2022/06/25 07:48:51;;;;;;;4.03;3.73;;;;;;;;;;5061048;28;24423;-46
2022/06/25 07:54:00;;;;;;;3.67;3.37;;;;;;;;;;5055255;28;24494;-46
2022/06/25 07:56:25;;;;;;;3.90;3.70;;;;;;;;;;5067204;28;24446;-46
2022/06/25 07:58:51;;;;;;;3.60;3.40;;;;;;;;;;5063126;28;24741;-46
2022/06/25 08:01:16;;;;;;;5.13;4.73;;;;;;;;;;5064400;28;24418;-45
2022/06/25 08:03:41;;;;;;;4.10;3.80;;;;;;;;;;5061016;28;24484;-47
2022/06/25 08:06:06;;;;;;;4.30;4.00;;;;;;;;;;5064575;28;24422;-47
2022/06/25 08:08:31;;;;;;;3.73;3.43;;;;;;;;;;5064886;28;24440;-46
2022/06/25 08:10:56;;;;;;;4.00;3.70;;;;;;;;;;5060427;28;24438;-47
2022/06/25 08:13:22;;;;;;;3.80;3.60;;;;;;;;;;5060643;28;24815;-47
2022/06/25 08:15:48;;;;;;;3.90;3.60;;;;;;;;;;5065223;28;24459;-47
2022/06/25 08:18:13;;;;;;;3.90;3.50;;;;;;;;;;5061937;28;24423;-46
2022/06/25 08:20:38;;;;;;;4.40;4.00;;;;;;;;;;5065105;28;24781;-45
2022/06/25 08:23:03;;;;;;;3.70;3.50;;;;;;;;;;5063055;28;24446;-45
2022/06/25 08:25:28;;;;;;;4.60;4.10;;;;;;;;;;5063375;28;24533;-45
2022/06/25 08:27:54;;;;;;;3.50;3.30;;;;;;;;;;5062898;28;24458;-46
2022/06/25 08:30:19;;;;;;;4.03;3.73;;;;;;;;;;5057804;28;24864;-45
2022/06/25 08:32:45;;;;;;;3.67;3.42;;;;;;;;;;5053495;28;25038;-45
2022/06/25 08:35:10;;;;;;;4.57;4.27;;;;;;;;;;5056515;28;24846;-46
2022/06/25 08:37:36;;;;;;;4.40;4.00;;;;;;;;;;5053983;28;25211;-45
2022/06/25 08:40:01;;;;;;;4.25;3.95;;;;;;;;;;5060059;28;24853;-45
2022/06/25 08:42:26;;;;;;;3.83;3.63;;;;;;;;;;5063926;28;24426;-46
2022/06/25 08:44:52;;;;;;;4.30;4.00;;;;;;;;;;5075344;28;24442;-45
2022/06/25 08:47:17;;;;;;;5.50;4.00;;;;;;;;;;5063708;28;24493;-45
2022/06/25 08:49:42;;;;;;;3.95;3.75;;;;;;;;;;5060685;28;24426;-45
2022/06/25 08:52:08;;;;;;;4.60;4.10;;;;;;;;;;5062102;28;24812;-45
2022/06/25 08:54:35;;;;;;;4.30;3.90;;;;;;;;;;5068027;28;24780;-45
2022/06/25 08:57:02;;;;;;;3.67;3.47;;;;;;;;;;5082156;28;21220;-45
2022/06/25 08:59:28;;;;;;;4.33;4.03;;;;;;;;;;5065088;28;24780;-46
2022/06/25 09:01:53;;;;;;;4.28;4.03;;;;;;;;;;5064745;28;24976;-46
2022/06/25 09:04:18;;;;;;;4.45;4.15;;;;;;;;;;5074311;28;24425;-46
2022/06/25 09:06:43;;;;;;;3.70;3.50;;;;;;;;;;5075196;28;24813;-47
2022/06/25 09:09:10;;;;;;;4.27;3.90;;;;;;;;;;5065482;28;24404;-47
2022/06/25 09:11:52;;;;;;;3.60;3.30;;;;;;;;;;5065850;28;24421;-45
2022/06/25 09:14:18;;;;;;;3.88;3.58;;;;;;;;;;5068322;28;24465;-45
2022/06/25 09:16:48;;;;;;;3.50;3.30;;;;;;;;;;5064808;28;24439;-45
2022/06/25 09:19:26;;;;;;;3.70;3.40;;;;;;;;;;5057558;28;24457;-46
2022/06/25 09:21:51;;;;;;;4.30;4.00;;;;;;;;;;5068215;28;24537;-47
2022/06/25 09:24:16;;;;;;;4.25;3.85;;;;;;;;;;5066711;28;24568;-46
2022/06/25 09:26:51;;;;;;;4.35;4.05;;;;;;;;;;5068649;28;24398;-46
2022/06/25 09:29:16;;;;;;;3.92;3.58;;;;;;;;;;5059896;28;24879;-46
2022/06/25 09:31:41;;;;;;;3.30;3.00;;;;;;;;;;5062303;28;24580;-47
2022/06/25 09:34:07;;;;;;;4.22;3.92;;;;;;;;;;5052562;28;24434;-47
2022/06/25 09:36:32;;;;;;;3.70;3.42;;;;;;;;;;5065109;28;26201;-47
2022/06/25 09:38:57;;;;;;;4.70;3.50;;;;;;;;;;5061663;28;25028;-47
2022/06/25 09:41:23;;;;;;;3.80;3.50;;;;;;;;;;5067172;28;24501;-47
2022/06/25 09:43:48;;;;;;;4.10;3.70;;;;;;;;;;5068710;28;24407;-47
2022/06/25 09:46:13;;;;;;;3.90;3.70;;;;;;;;;;5066060;28;25026;-47
2022/06/25 09:48:40;;;;;;;3.40;3.20;;;;;;;;;;5058252;28;24500;-46
2022/06/25 09:51:13;;;;;;;4.10;3.60;;;;;;;;;;5068137;28;24444;-46
2022/06/25 09:53:48;;;;;;;3.58;3.28;;;;;;;;;;5052411;28;24433;-46
2022/06/25 09:56:23;;;;;;;3.55;3.25;;;;;;;;;;5061296;28;24968;-47
2022/06/25 09:58:49;;;;;;;3.78;3.58;;;;;;;;;;5066759;28;24427;-47
2022/06/25 10:01:18;;;;;;;3.90;3.70;;;;;;;;;;5067620;28;24417;-47
2022/06/25 10:03:43;;;;;;;3.60;3.40;;;;;;;;;;5061835;28;24439;-47
2022/06/25 10:06:09;;;;;;;3.60;3.30;;;;;;;;;;5063495;28;24457;-47
2022/06/25 10:08:35;;;;;;;3.30;3.10;;;;;;;;;;5054556;28;24968;-47
2022/06/25 10:11:03;;;;;;;3.97;3.77;;;;;;;;;;5067155;28;24514;-47
2022/06/25 10:13:28;;;;;;;3.80;3.50;;;;;;;;;;5063792;28;24423;-46
2022/06/25 10:15:55;;;;;;;4.70;4.40;;;;;;;;;;5064779;28;24773;-47
2022/06/25 10:18:20;;;;;;;4.77;4.47;;;;;;;;;;5048244;28;24771;-47
2022/06/25 10:20:46;;;;;;;3.88;3.58;;;;;;;;;;5063744;28;24473;-47
2022/06/25 10:23:12;;;;;;;4.60;4.20;;;;;;;;;;5060977;28;25060;-47
2022/06/25 10:25:37;;;;;;;6.60;5.90;;;;;;;;;;5062135;28;24831;-48
2022/06/25 10:28:05;;;;;;;5.63;5.23;;;;;;;;;;5053008;28;24953;-47
2022/06/25 10:30:50;;;;;;;6.03;5.50;;;;;;;;;;5044882;28;24542;-47
2022/06/25 10:33:21;;;;;;;6.55;6.15;;;;;;;;;;5052876;28;24512;-47
2022/06/25 10:35:47;;;;;;;5.35;4.95;;;;;;;;;;5063375;28;24453;-47
2022/06/25 10:38:13;;;;;;;4.78;4.47;;;;;;;;;;5063908;28;24425;-47
2022/06/25 10:40:53;;;;;;;5.40;5.00;;;;;;;;;;5071727;28;24769;-46
2022/06/25 10:43:37;;;;;;;5.75;5.25;;;;;;;;;;5060341;28;24506;-46
2022/06/25 10:46:25;;;;;;;4.60;4.20;;;;;;;;;;5066177;28;24470;-48
2022/06/25 10:48:52;;;;;;;4.53;4.10;;;;;;;;;;5069684;28;24415;-47
2022/06/25 10:51:31;;;;;;;5.03;4.70;;;;;;;;;;5056598;28;24425;-48
2022/06/25 10:53:57;;;;;;;4.32;4.03;;;;;;;;;;5048583;28;24459;-47
2022/06/25 10:56:22;;;;;;;5.68;5.28;;;;;;;;;;5068550;28;24861;-46
2022/06/25 10:58:48;;;;;;;5.57;5.20;;;;;;;;;;5072934;28;24464;-47
2022/06/25 11:01:20;;;;;;;5.10;4.80;;;;;;;;;;5063456;28;24479;-47
2022/06/25 11:03:46;;;;;;;5.55;5.25;;;;;;;;;;5060599;28;24419;-47
2022/06/25 11:06:18;;;;;;;5.10;4.70;;;;;;;;;;5060531;28;24472;-50
2022/06/25 11:08:44;;;;;;;4.90;4.60;;;;;;;;;;5062733;28;24476;-47
2022/06/25 11:11:10;;;;;;;5.20;4.80;;;;;;;;;;5061631;28;24937;-46
2022/06/25 11:13:35;;;;;;;4.65;4.25;;;;;;;;;;5056157;28;25207;-46
2022/06/25 11:16:11;;;;;;;5.03;4.60;;;;;;;;;;5056201;28;24476;-47
2022/06/25 11:18:44;;;;;;;7.10;6.40;;;;;;;;;;5054769;28;24449;-47
2022/06/25 11:21:09;;;;;;;6.72;6.30;;;;;;;;;;5056341;28;24508;-46
2022/06/25 11:23:34;;;;;;;6.30;5.80;;;;;;;;;;5078628;28;24989;-46
2022/06/25 11:28:53;;;;;;;7.40;6.80;;;;;;;;;;5046768;28;24441;-46
2022/06/25 11:31:22;;;;;;;6.00;5.60;;;;;;;;;;5052329;28;24793;-47
2022/06/25 11:33:48;;;;;;;5.70;5.30;;;;;;;;;;5064716;28;24462;-46
2022/06/25 11:36:14;;;;;;;6.45;6.05;;;;;;;;;;5076764;28;24463;-47
2022/06/25 11:38:39;;;;;;;5.30;5.00;;;;;;;;;;5060024;28;25090;-47
2022/06/25 11:41:04;;;;;;;5.90;5.50;;;;;;;;;;5061164;28;24958;-46
2022/06/25 11:43:30;;;;;;;6.13;5.73;;;;;;;;;;5048125;28;25076;-46
2022/06/25 11:45:55;;;;;;;6.70;6.20;;;;;;;;;;5062230;28;24446;-46
2022/06/25 11:48:25;;;;;;;5.72;5.43;;;;;;;;;;5058203;28;24881;-46
2022/06/25 11:50:53;;;;;;;5.80;5.40;;;;;;;;;;5063506;28;25112;-45
2022/06/25 11:53:18;;;;;;;6.30;5.90;;;;;;;;;;5060527;28;24835;-46
2022/06/25 11:55:54;;;;;;;5.65;5.25;;;;;;;;;;5055475;28;24488;-45
2022/06/25 11:58:19;;;;;;;6.45;5.97;;;;;;;;;;5072399;28;24469;-46
2022/06/25 12:00:45;;;;;;;7.30;6.80;;;;;;;;;;5053194;28;24907;-46
2022/06/25 12:03:10;;;;;;;6.55;6.00;;;;;;;;;;5058668;28;24518;-46
2022/06/25 12:05:35;;;;;;;6.63;6.23;;;;;;;;;;5058993;28;24521;-45
2022/06/25 12:08:00;;;;;;;6.40;5.95;;;;;;;;;;5062076;28;24437;-45
2022/06/25 12:10:28;;;;;;;6.70;6.30;;;;;;;;;;5061799;28;24868;-46
2022/06/25 12:12:53;;;;;;;6.57;6.18;;;;;;;;;;5051818;28;24476;-45
2022/06/25 12:15:18;;;;;;;6.53;5.93;;;;;;;;;;5053194;28;24422;-45
2022/06/25 12:17:43;;;;;;;6.15;5.75;;;;;;;;;;5067816;28;24414;-45
2022/06/25 12:20:13;;;;;;;6.10;5.70;;;;;;;;;;5068015;28;24852;-45
2022/06/25 12:22:42;;;;;;;5.63;5.30;;;;;;;;;;5054062;28;24425;-46
2022/06/25 12:25:08;;;;;;;6.03;5.53;;;;;;;;;;5062924;28;24490;-46
2022/06/25 12:27:46;;;;;;;5.63;5.33;;;;;;;;;;5061321;28;24517;-47
2022/06/25 12:30:12;;;;;;;5.50;5.20;;;;;;;;;;5050327;28;24988;-46
2022/06/25 12:32:41;;;;;;;5.60;5.30;;;;;;;;;;5045332;28;24458;-47
2022/06/25 12:35:17;;;;;;;5.80;5.40;;;;;;;;;;5064188;28;24430;-45
2022/06/25 12:37:43;;;;;;;6.00;5.60;;;;;;;;;;5062801;28;24496;-45
2022/06/25 12:40:08;;;;;;;6.40;6.00;;;;;;;;;;5061849;28;24426;-45
2022/06/25 12:42:33;;;;;;;5.32;5.10;;;;;;;;;;5063139;28;24427;-46
2022/06/25 12:44:59;;;;;;;5.40;5.10;;;;;;;;;;5060429;28;24435;-46
2022/06/25 12:47:24;;;;;;;5.90;5.40;;;;;;;;;;5059708;28;24987;-46
2022/06/25 12:49:49;;;;;;;6.00;5.60;;;;;;;;;;5059042;28;24425;-46
2022/06/25 12:52:19;;;;;;;5.80;5.50;;;;;;;;;;5062541;28;24454;-46
2022/06/25 12:54:46;;;;;;;5.63;5.32;;;;;;;;;;5074611;28;24443;-47
2022/06/25 12:57:30;;;;;;;5.75;5.45;;;;;;;;;;5065255;28;24973;-45
2022/06/25 12:59:56;;;;;;;5.60;5.30;;;;;;;;;;5049800;28;24691;-47
2022/06/25 13:02:22;;;;;;;5.88;5.47;;;;;;;;;;5057470;28;24545;-47
2022/06/25 13:04:48;;;;;;;6.70;6.20;;;;;;;;;;5059004;28;25028;-46
2022/06/25 13:07:13;;;;;;;5.57;5.28;;;;;;;;;;5061245;28;24996;-46
2022/06/25 13:09:39;;;;;;;5.87;5.37;;;;;;;;;;5058112;28;25117;-46
2022/06/25 13:12:05;;;;;;;6.15;5.75;;;;;;;;;;5057792;28;24969;-46
2022/06/25 13:14:30;;;;;;;5.10;4.80;;;;;;;;;;5049312;28;24423;-46
2022/06/25 13:16:57;;;;;;;5.30;5.00;;;;;;;;;;5052687;28;24475;-46
2022/06/25 13:19:22;;;;;;;5.53;5.13;;;;;;;;;;5079195;28;24403;-47
2022/06/25 13:21:47;;;;;;;5.65;5.35;;;;;;;;;;5057330;28;24485;-45
2022/06/25 13:24:15;;;;;;;5.40;5.00;;;;;;;;;;5055333;28;24465;-46
2022/06/25 13:26:40;;;;;;;5.00;4.70;;;;;;;;;;5056237;28;24419;-47
2022/06/25 13:29:05;;;;;;;4.88;4.57;;;;;;;;;;5064349;28;25300;-47
2022/06/25 13:31:30;;;;;;;4.77;4.57;;;;;;;;;;5058535;28;24418;-46
2022/06/25 13:33:56;;;;;;;4.68;4.47;;;;;;;;;;5058521;28;25083;-46
2022/06/25 13:36:21;;;;;;;5.00;4.70;;;;;;;;;;5066229;28;24719;-46
2022/06/25 13:38:46;;;;;;;5.40;5.00;;;;;;;;;;5064423;28;24430;-46
2022/06/25 13:41:11;;;;;;;4.82;4.43;;;;;;;;;;5070113;28;24552;-46
2022/06/25 13:43:37;;;;;;;4.30;4.00;;;;;;;;;;5068459;28;24581;-46
2022/06/25 13:46:02;;;;;;;4.00;3.80;;;;;;;;;;5050314;28;24786;-46
2022/06/25 13:48:27;;;;;;;3.90;3.70;;;;;;;;;;5049616;28;24445;-46
2022/06/25 13:50:53;;;;;;;4.90;4.40;;;;;;;;;;5048659;28;24447;-46
2022/06/25 13:53:18;;;;;;;4.30;4.10;;;;;;;;;;5064104;28;24788;-45
2022/06/25 13:55:43;;;;;;;5.40;5.00;;;;;;;;;;5052438;28;25053;-46
2022/06/25 13:58:08;;;;;;;4.77;4.10;;;;;;;;;;5054052;28;24437;-45
2022/06/25 14:00:33;;;;;;;4.30;4.00;;;;;;;;;;5066606;28;24458;-45
2022/06/25 14:02:59;;;;;;;5.10;4.80;;;;;;;;;;5064270;28;24488;-46
2022/06/25 14:05:24;;;;;;;5.20;4.80;;;;;;;;;;5051779;28;24458;-46
2022/06/25 14:07:49;;;;;;;4.80;4.30;;;;;;;;;;5054616;28;24415;-45
2022/06/25 14:10:14;;;;;;;4.03;3.83;;;;;;;;;;5055671;28;24455;-46
2022/06/25 14:12:40;;;;;;;4.70;4.40;;;;;;;;;;5066198;28;24516;-45
2022/06/25 14:15:05;;;;;;;7.00;6.50;;;;;;;;;;5056138;28;24418;-45
2022/06/25 14:17:30;;;;;;;6.97;6.47;;;;;;;;;;5046862;28;25314;-45
2022/06/25 14:19:56;;;;;;;6.60;6.20;;;;;;;;;;5047308;28;24443;-45
2022/06/25 14:22:21;;;;;;;6.90;6.40;;;;;;;;;;5065917;28;24431;-45
2022/06/25 14:27:30;;;;;;;5.70;5.30;;;;;;;;;;5047772;28;25416;-45
2022/06/25 14:29:55;;;;;;;5.45;5.15;;;;;;;;;;5045010;28;24532;-46
2022/06/25 14:32:21;;;;;;;6.30;5.30;;;;;;;;;;5058282;28;24769;-45
2022/06/25 14:34:46;;;;;;;6.13;5.63;;;;;;;;;;5067353;28;24430;-46
2022/06/25 14:42:40;;;;;;;6.20;5.70;;;;;;;;;;5055515;28;24442;-45
2022/06/25 14:45:05;;;;;;;5.60;5.20;;;;;;;;;;5066533;28;25198;-44
2022/06/25 14:47:30;;;;;;;5.80;5.40;;;;;;;;;;5062333;28;24422;-50
2022/06/25 14:49:55;;;;;;;6.23;5.83;;;;;;;;;;5073812;28;24426;-45
2022/06/25 14:52:21;;;;;;;5.93;5.53;;;;;;;;;;5065167;28;24411;-46
2022/06/25 14:54:46;;;;;;;5.20;4.90;;;;;;;;;;5065347;28;24491;-46
2022/06/25 14:57:11;;;;;;;5.47;5.07;;;;;;;;;;5061444;28;24417;-46